Time,TemperatureF,DewpointF,PressureIn,WindDirection,WindDirectionDegrees,WindSpeedMPH,WindSpeedGustMPH,Humidity,HourlyPrecipIn,Conditions,Clouds,dailyrainin,SoftwareType,DateUTC
2013-03-06 00:00:00,26.7,20.8,30.11,ENE,69,4.0,7.0,78,0.00,,OVC034,0.00,VWS V14.01,2013-03-06 05:00:00,
2013-03-06 00:01:00,26.6,20.7,30.11,ENE,73,2.0,4.0,78,0.00,,OVC034,0.00,VWS V14.01,2013-03-06 05:01:00,
2013-03-06 00:06:00,26.7,20.8,30.11,East,91,6.0,7.0,78,0.00,,OVC048,0.00,VWS V14.01,2013-03-06 05:06:00,
2013-03-06 00:11:00,26.9,21.0,30.11,East,82,6.0,7.0,78,0.00,,OVC048,0.00,VWS V14.01,2013-03-06 05:11:00,
2013-03-06 00:16:00,27.0,21.1,30.11,ENE,67,5.0,7.0,78,0.00,,OVC048,0.00,VWS V14.01,2013-03-06 05:16:00,
2013-03-06 00:21:00,27.1,21.2,30.11,ENE,57,3.0,5.0,78,0.00,,OVC048,0.00,VWS V14.01,2013-03-06 05:21:00,
2013-03-06 00:26:00,27.1,21.2,30.11,ENE,63,5.0,7.0,78,0.00,,OVC048,0.00,VWS V14.01,2013-03-06 05:26:00,
2013-03-06 00:31:00,27.2,21.3,30.11,ENE,75,4.0,7.0,78,0.00,,OVC048,0.00,VWS V14.01,2013-03-06 05:31:00,
2013-03-06 00:36:00,27.4,21.5,30.11,East,88,3.0,8.0,78,0.00,,OVC048,0.00,VWS V14.01,2013-03-06 05:36:00,
2013-03-06 00:41:00,27.6,22.0,30.11,ESE,114,4.0,9.0,79,0.00,,OVC048,0.00,VWS V14.01,2013-03-06 05:41:00,
2013-03-06 00:46:00,27.8,22.1,30.11,ENE,77,7.0,9.0,79,0.00,,OVC048,0.00,VWS V14.01,2013-03-06 05:46:00,
2013-03-06 00:51:00,27.9,22.2,30.11,ENE,69,4.0,7.0,79,0.00,,OVC048,0.00,VWS V14.01,2013-03-06 05:51:00,
2013-03-06 00:56:00,28.1,22.7,30.11,ENE,75,8.0,15.0,80,0.00,,OVC048,0.00,VWS V14.01,2013-03-06 05:56:00,
2013-03-06 01:01:00,28.3,22.9,30.12,East,94,8.0,15.0,80,0.00,,OVC048,0.00,VWS V14.01,2013-03-06 06:01:00,
2013-03-06 01:06:00,28.5,23.4,30.12,East,85,7.0,8.0,81,0.00,,OVC048,0.00,VWS V14.01,2013-03-06 06:06:00,
2013-03-06 01:11:00,28.7,23.6,30.12,NE,54,4.0,8.0,81,0.00,,OVC048,0.00,VWS V14.01,2013-03-06 06:11:00,
2013-03-06 01:16:00,28.8,23.7,30.11,ENE,73,7.0,10.0,81,0.00,,OVC048,0.00,VWS V14.01,2013-03-06 06:16:00,
2013-03-06 01:21:00,28.9,23.8,30.12,East,85,9.0,11.0,81,0.00,,OVC048,0.00,VWS V14.01,2013-03-06 06:21:00,
2013-03-06 01:26:00,29.1,24.0,30.12,East,92,6.0,7.0,81,0.00,,OVC048,0.00,VWS V14.01,2013-03-06 06:26:00,
2013-03-06 01:31:00,29.2,24.1,30.12,East,90,14.0,14.0,81,0.00,,OVC048,0.00,VWS V14.01,2013-03-06 06:31:00,
2013-03-06 01:37:00,29.3,24.2,30.12,ENE,75,9.0,10.0,81,0.00,,OVC048,0.00,VWS V14.01,2013-03-06 06:37:00,
2013-03-06 01:42:00,29.3,24.2,30.12,East,81,10.0,11.0,81,0.00,,OVC048,0.00,VWS V14.01,2013-03-06 06:42:00,
2013-03-06 01:47:00,29.3,24.2,30.12,East,95,7.0,9.0,81,0.00,,OVC048,0.00,VWS V14.01,2013-03-06 06:47:00,
2013-03-06 01:52:00,29.3,24.2,30.12,East,90,5.0,14.0,81,0.00,,OVC048,0.00,VWS V14.01,2013-03-06 06:52:00,
2013-03-06 01:57:00,29.4,24.3,30.13,ENE,75,9.0,9.0,81,0.00,,OVC048,0.00,VWS V14.01,2013-03-06 06:57:00,
2013-03-06 02:02:00,29.4,24.3,30.13,East,91,9.0,17.0,81,0.00,,OVC048,0.00,VWS V14.01,2013-03-06 07:02:00,
2013-03-06 02:07:00,29.4,24.3,30.13,NE,54,6.0,8.0,81,0.00,,OVC048,0.00,VWS V14.01,2013-03-06 07:07:00,
2013-03-06 02:12:00,29.4,24.3,30.13,ESE,107,5.0,9.0,81,0.00,,OVC048,0.00,VWS V14.01,2013-03-06 07:12:00,
2013-03-06 02:17:00,29.4,24.3,30.13,East,93,10.0,11.0,81,0.00,,OVC048,0.00,VWS V14.01,2013-03-06 07:17:00,
2013-03-06 02:22:00,29.4,24.3,30.14,East,82,10.0,12.0,81,0.00,,OVC048,0.00,VWS V14.01,2013-03-06 07:22:00,
2013-03-06 02:27:00,29.4,24.3,30.14,East,95,14.0,14.0,81,0.00,,OVC048,0.00,VWS V14.01,2013-03-06 07:27:00,
2013-03-06 02:32:00,29.4,24.3,30.14,ESE,111,11.0,11.0,81,0.00,,OVC048,0.00,VWS V14.01,2013-03-06 07:32:00,
2013-03-06 02:37:00,29.4,24.3,30.14,East,82,10.0,11.0,81,0.00,,OVC048,0.00,VWS V14.01,2013-03-06 07:37:00,
2013-03-06 02:42:00,29.5,24.4,30.14,ESE,105,12.0,13.0,81,0.00,,OVC048,0.00,VWS V14.01,2013-03-06 07:42:00,
2013-03-06 02:47:00,29.5,24.4,30.14,East,97,9.0,9.0,81,0.00,,OVC048,0.00,VWS V14.01,2013-03-06 07:47:00,
2013-03-06 02:52:00,29.4,24.3,30.14,East,85,6.0,9.0,81,0.00,,OVC048,0.00,VWS V14.01,2013-03-06 07:52:00,
2013-03-06 02:57:00,29.4,24.6,30.14,ENE,69,7.0,13.0,82,0.00,,OVC048,0.00,VWS V14.01,2013-03-06 07:57:00,
2013-03-06 03:02:00,29.4,24.6,30.13,ESE,102,7.0,8.0,82,0.00,,OVC048,0.00,VWS V14.01,2013-03-06 08:02:00,
2013-03-06 03:07:00,29.3,24.5,30.14,East,79,5.0,5.0,82,0.00,,OVC038,0.00,VWS V14.01,2013-03-06 08:07:00,
2013-03-06 03:12:00,29.3,24.5,30.14,East,79,7.0,8.0,82,0.00,,OVC038,0.00,VWS V14.01,2013-03-06 08:12:00,
2013-03-06 03:17:00,29.2,24.4,30.14,ENE,76,4.0,4.0,82,0.00,,OVC038,0.00,VWS V14.01,2013-03-06 08:17:00,
2013-03-06 03:22:00,29.0,24.2,30.14,East,93,3.0,7.0,82,0.00,,OVC038,0.00,VWS V14.01,2013-03-06 08:22:00,
2013-03-06 03:27:00,28.9,24.4,30.14,East,86,5.0,7.0,83,0.00,,OVC038,0.00,VWS V14.01,2013-03-06 08:27:00,
2013-03-06 03:32:00,28.8,24.3,30.14,East,98,6.0,10.0,83,0.00,,OVC038,0.00,VWS V14.01,2013-03-06 08:32:00,
2013-03-06 03:37:00,28.7,24.2,30.14,East,94,6.0,7.0,83,0.00,,OVC038,0.00,VWS V14.01,2013-03-06 08:37:00,
2013-03-06 03:42:00,28.6,24.1,30.14,ENE,78,7.0,9.0,83,0.00,,OVC038,0.00,VWS V14.01,2013-03-06 08:42:00,
2013-03-06 03:47:00,28.3,23.8,30.14,ESE,107,7.0,8.0,83,0.00,,OVC038,0.00,VWS V14.01,2013-03-06 08:47:00,
2013-03-06 03:52:00,28.3,24.1,30.14,ENE,78,9.0,10.0,84,0.00,,OVC038,0.00,VWS V14.01,2013-03-06 08:52:00,
2013-03-06 03:57:00,28.4,24.2,30.14,ENE,69,5.0,5.0,84,0.00,,OVC038,0.00,VWS V14.01,2013-03-06 08:57:00,
2013-03-06 04:02:00,28.4,24.2,30.14,East,81,9.0,10.0,84,0.00,,OVC038,0.00,VWS V14.01,2013-03-06 09:02:00,
2013-03-06 04:07:00,28.5,24.3,30.14,ESE,109,7.0,8.0,84,0.00,,OVC036,0.00,VWS V14.01,2013-03-06 09:07:00,
2013-03-06 04:12:00,28.5,24.0,30.14,East,98,7.0,10.0,83,0.00,,OVC036,0.00,VWS V14.01,2013-03-06 09:12:00,
2013-03-06 04:17:00,28.6,24.1,30.14,East,82,5.0,6.0,83,0.00,,OVC036,0.00,VWS V14.01,2013-03-06 09:17:00,
2013-03-06 04:22:00,28.6,24.1,30.14,ENE,70,5.0,7.0,83,0.00,,OVC036,0.00,VWS V14.01,2013-03-06 09:22:00,
2013-03-06 04:27:00,28.6,24.1,30.14,East,89,7.0,10.0,83,0.00,,OVC036,0.00,VWS V14.01,2013-03-06 09:27:00,
2013-03-06 04:32:00,28.6,24.1,30.14,ESE,117,8.0,12.0,83,0.00,,OVC036,0.00,VWS V14.01,2013-03-06 09:32:00,
2013-03-06 04:37:00,28.6,24.1,30.15,East,88,5.0,6.0,83,0.00,,OVC036,0.00,VWS V14.01,2013-03-06 09:37:00,
2013-03-06 04:42:00,28.6,24.1,30.15,East,85,2.0,3.0,83,0.00,,OVC036,0.00,VWS V14.01,2013-03-06 09:42:00,
2013-03-06 04:47:00,28.5,24.0,30.15,East,94,7.0,7.0,83,0.00,,OVC036,0.00,VWS V14.01,2013-03-06 09:47:00,
2013-03-06 04:52:00,28.4,23.9,30.15,East,79,3.0,5.0,83,0.00,,OVC036,0.00,VWS V14.01,2013-03-06 09:52:00,
2013-03-06 04:57:00,28.4,23.9,30.15,ENE,71,0.0,1.0,83,0.00,,OVC036,0.00,VWS V14.01,2013-03-06 09:57:00,
2013-03-06 05:02:00,28.3,24.1,30.15,East,79,2.0,3.0,84,0.00,,OVC036,0.00,VWS V14.01,2013-03-06 10:02:00,
2013-03-06 05:07:00,28.1,23.9,30.16,East,79,1.0,1.0,84,0.00,,OVC018,0.00,VWS V14.01,2013-03-06 10:07:00,
2013-03-06 05:12:00,28.1,23.9,30.16,East,79,1.0,2.0,84,0.00,,OVC018,0.00,VWS V14.01,2013-03-06 10:12:00,
2013-03-06 05:18:00,28.1,23.9,30.16,East,79,0.0,1.0,84,0.00,,OVC018,0.00,VWS V14.01,2013-03-06 10:18:00,
2013-03-06 05:23:00,28.1,23.9,30.16,East,98,2.0,2.0,84,0.00,,OVC018,0.00,VWS V14.01,2013-03-06 10:23:00,
2013-03-06 05:28:00,28.1,23.9,30.17,East,81,2.0,3.0,84,0.00,,OVC018,0.00,VWS V14.01,2013-03-06 10:28:00,
2013-03-06 05:33:00,28.1,23.9,30.17,East,85,2.0,3.0,84,0.00,,OVC018,0.00,VWS V14.01,2013-03-06 10:33:00,
2013-03-06 05:38:00,28.0,23.8,30.17,ENE,74,4.0,5.0,84,0.00,,OVC018,0.00,VWS V14.01,2013-03-06 10:38:00,
2013-03-06 05:43:00,27.9,23.7,30.17,East,87,5.0,5.0,84,0.00,,OVC018,0.00,VWS V14.01,2013-03-06 10:43:00,
2013-03-06 05:48:00,27.9,23.7,30.17,ENE,78,5.0,7.0,84,0.00,,OVC018,0.00,VWS V14.01,2013-03-06 10:48:00,
2013-03-06 05:53:00,27.7,23.5,30.17,ENE,73,5.0,7.0,84,0.00,,OVC018,0.00,VWS V14.01,2013-03-06 10:53:00,
2013-03-06 05:58:00,27.6,23.4,30.17,East,92,3.0,8.0,84,0.00,,OVC018,0.00,VWS V14.01,2013-03-06 10:58:00,
2013-03-06 06:03:00,27.6,23.4,30.17,ENE,59,7.0,13.0,84,0.00,,OVC018,0.00,VWS V14.01,2013-03-06 11:03:00,
2013-03-06 06:08:00,27.6,23.4,30.17,East,80,7.0,9.0,84,0.00,,OVC018,0.00,VWS V14.01,2013-03-06 11:08:00,
2013-03-06 06:13:00,27.5,23.3,30.18,East,101,7.0,9.0,84,0.00,,OVC018,0.00,VWS V14.01,2013-03-06 11:13:00,
2013-03-06 06:18:00,27.6,23.4,30.17,East,82,10.0,12.0,84,0.00,,OVC018,0.00,VWS V14.01,2013-03-06 11:18:00,
2013-03-06 06:23:00,27.7,23.2,30.18,East,96,8.0,9.0,83,0.00,,OVC018,0.00,VWS V14.01,2013-03-06 11:23:00,
2013-03-06 06:28:00,27.7,23.2,30.18,ENE,78,8.0,11.0,83,0.00,,OVC018,0.00,VWS V14.01,2013-03-06 11:28:00,
2013-03-06 06:33:00,27.8,23.3,30.18,ENE,75,4.0,7.0,83,0.00,,OVC018,0.00,VWS V14.01,2013-03-06 11:33:00,
2013-03-06 06:38:00,27.8,23.3,30.18,ENE,71,5.0,9.0,83,0.00,,OVC018,0.00,VWS V14.01,2013-03-06 11:38:00,
2013-03-06 06:43:00,27.8,23.3,30.18,ENE,78,7.0,9.0,83,0.00,,OVC018,0.00,VWS V14.01,2013-03-06 11:43:00,
2013-03-06 06:48:00,27.8,23.3,30.18,East,89,6.0,6.0,83,0.00,,OVC018,0.00,VWS V14.01,2013-03-06 11:48:00,
2013-03-06 06:53:00,27.8,23.3,30.18,East,80,5.0,6.0,83,0.00,,OVC018,0.00,VWS V14.01,2013-03-06 11:53:00,
2013-03-06 06:58:00,27.8,23.3,30.19,ENE,73,4.0,6.0,83,0.00,,OVC018,0.00,VWS V14.01,2013-03-06 11:58:00,
2013-03-06 07:03:00,27.8,23.3,30.19,ENE,73,7.0,8.0,83,0.00,,OVC018,0.00,VWS V14.01,2013-03-06 12:03:00,
2013-03-06 07:08:00,27.8,23.3,30.19,ENE,76,3.0,6.0,83,0.00,,OVC022,0.00,VWS V14.01,2013-03-06 12:08:00,
2013-03-06 07:13:00,27.8,23.3,30.19,ENE,61,2.0,2.0,83,0.00,,OVC022,0.00,VWS V14.01,2013-03-06 12:13:00,
2013-03-06 07:18:00,27.7,23.2,30.19,NE,53,0.0,1.0,83,0.00,,OVC022,0.00,VWS V14.01,2013-03-06 12:18:00,
2013-03-06 07:23:00,27.6,23.4,30.19,NE,53,1.0,1.0,84,0.00,,OVC022,0.00,VWS V14.01,2013-03-06 12:23:00,
2013-03-06 07:28:00,27.4,23.2,30.20,NE,53,0.0,0.0,84,0.00,,OVC022,0.00,VWS V14.01,2013-03-06 12:28:00,
2013-03-06 07:33:00,27.1,23.2,30.20,ENE,69,2.0,3.0,85,0.00,,OVC022,0.00,VWS V14.01,2013-03-06 12:33:00,
2013-03-06 07:38:00,27.6,23.4,30.20,NE,45,1.0,2.0,84,0.00,,OVC022,0.00,VWS V14.01,2013-03-06 12:38:00,
2013-03-06 07:43:00,27.6,23.4,30.21,NE,45,2.0,2.0,84,0.00,,OVC022,0.00,VWS V14.01,2013-03-06 12:43:00,
2013-03-06 07:48:00,27.6,23.4,30.21,NE,45,0.0,1.0,84,0.00,,OVC022,0.00,VWS V14.01,2013-03-06 12:48:00,
2013-03-06 07:53:00,27.5,23.3,30.21,NE,45,0.0,1.0,84,0.00,,OVC022,0.00,VWS V14.01,2013-03-06 12:53:00,
2013-03-06 07:58:00,27.6,23.4,30.21,ENE,76,1.0,1.0,84,0.00,,OVC022,0.00,VWS V14.01,2013-03-06 12:58:00,
2013-03-06 08:03:00,27.7,23.2,30.21,NE,52,2.0,2.0,83,0.00,,OVC022,0.00,VWS V14.01,2013-03-06 13:03:00,
2013-03-06 08:08:00,27.7,23.2,30.21,NE,50,2.0,3.0,83,0.00,,OVC022,0.00,VWS V14.01,2013-03-06 13:08:00,
2013-03-06 08:13:00,27.8,23.3,30.21,ENE,67,2.0,2.0,83,0.00,,OVC022,0.00,VWS V14.01,2013-03-06 13:13:00,
2013-03-06 08:18:00,27.9,23.4,30.21,ENE,76,3.0,3.0,83,0.00,,OVC022,0.00,VWS V14.01,2013-03-06 13:18:00,
2013-03-06 08:23:00,27.9,23.4,30.21,ENE,65,2.0,3.0,83,0.00,,OVC022,0.00,VWS V14.01,2013-03-06 13:23:00,
2013-03-06 08:29:00,27.9,23.4,30.21,ENE,76,4.0,5.0,83,0.00,,OVC022,0.00,VWS V14.01,2013-03-06 13:29:00,
2013-03-06 08:34:00,28.1,23.6,30.21,East,82,2.0,3.0,83,0.00,,OVC022,0.00,VWS V14.01,2013-03-06 13:34:00,
2013-03-06 08:39:00,28.3,23.8,30.21,ENE,78,1.0,2.0,83,0.00,,OVC022,0.00,VWS V14.01,2013-03-06 13:39:00,
2013-03-06 08:44:00,28.4,23.9,30.20,East,80,2.0,3.0,83,0.00,,OVC022,0.00,VWS V14.01,2013-03-06 13:44:00,
2013-03-06 08:49:00,28.6,24.1,30.20,ENE,76,1.0,1.0,83,0.00,,OVC022,0.00,VWS V14.01,2013-03-06 13:49:00,
2013-03-06 08:54:00,28.8,24.3,30.20,East,86,2.0,3.0,83,0.00,,OVC022,0.00,VWS V14.01,2013-03-06 13:54:00,
2013-03-06 08:59:00,29.1,24.3,30.20,ESE,121,3.0,4.0,82,0.00,,OVC022,0.00,VWS V14.01,2013-03-06 13:59:00,
2013-03-06 09:04:00,29.3,24.5,30.20,ESE,111,4.0,7.0,82,0.00,,OVC022,0.00,VWS V14.01,2013-03-06 14:04:00,
2013-03-06 09:09:00,29.4,24.6,30.20,ESE,111,5.0,7.0,82,0.00,,OVC075,0.00,VWS V14.01,2013-03-06 14:09:00,
2013-03-06 09:14:00,29.6,24.8,30.20,East,96,8.0,9.0,82,0.00,,OVC075,0.00,VWS V14.01,2013-03-06 14:14:00,
2013-03-06 09:19:00,29.8,25.0,30.20,East,82,3.0,7.0,82,0.00,,OVC075,0.00,VWS V14.01,2013-03-06 14:19:00,
2013-03-06 09:24:00,30.2,25.1,30.20,East,98,6.0,6.0,81,0.00,,OVC075,0.00,VWS V14.01,2013-03-06 14:24:00,
2013-03-06 09:29:00,30.4,25.3,30.20,East,84,7.0,8.0,81,0.00,,OVC075,0.00,VWS V14.01,2013-03-06 14:29:00,
2013-03-06 09:34:00,30.6,25.5,30.20,East,87,6.0,6.0,81,0.00,,OVC075,0.00,VWS V14.01,2013-03-06 14:34:00,
2013-03-06 09:39:00,31.0,25.6,30.20,East,96,5.0,5.0,80,0.00,,OVC075,0.00,VWS V14.01,2013-03-06 14:39:00,
2013-03-06 09:44:00,31.2,25.8,30.20,East,94,6.0,6.0,80,0.00,,OVC075,0.00,VWS V14.01,2013-03-06 14:44:00,
2013-03-06 09:49:00,31.4,26.0,30.20,East,100,8.0,8.0,80,0.00,,OVC075,0.00,VWS V14.01,2013-03-06 14:49:00,
2013-03-06 09:54:00,31.5,26.0,30.21,East,99,6.0,6.0,80,0.00,,OVC075,0.00,VWS V14.01,2013-03-06 14:54:00,
2013-03-06 09:59:00,31.6,25.9,30.21,ENE,73,8.0,8.0,79,0.00,,OVC075,0.00,VWS V14.01,2013-03-06 14:59:00,
2013-03-06 10:13:00,32.0,26.2,30.21,East,88,7.0,7.0,79,0.00,,OVC075,0.00,VWS V14.01,2013-03-06 15:13:00,
2013-03-06 10:18:00,32.2,26.4,30.21,East,91,7.0,10.0,79,0.00,,OVC075,0.00,VWS V14.01,2013-03-06 15:18:00,
2013-03-06 10:23:00,32.4,26.3,30.21,East,90,5.0,6.0,78,0.00,,OVC075,0.00,VWS V14.01,2013-03-06 15:23:00,
2013-03-06 10:28:00,32.5,26.7,30.21,East,96,2.0,5.0,79,0.00,,OVC075,0.00,VWS V14.01,2013-03-06 15:28:00,
2013-03-06 10:33:00,33.4,27.3,30.21,NE,53,3.0,4.0,78,0.00,,OVC075,0.00,VWS V14.01,2013-03-06 15:33:00,
2013-03-06 10:38:00,33.3,27.2,30.21,ENE,57,1.0,1.0,78,0.00,,OVC075,0.00,VWS V14.01,2013-03-06 15:38:00,
2013-03-06 10:43:00,34.0,27.9,30.22,NNE,20,2.0,2.0,78,0.00,,OVC075,0.00,VWS V14.01,2013-03-06 15:43:00,
2013-03-06 10:48:00,34.0,27.9,30.21,NNE,20,2.0,2.0,78,0.00,,OVC075,0.00,VWS V14.01,2013-03-06 15:48:00,
2013-03-06 10:53:00,33.8,27.4,30.21,ENE,59,1.0,2.0,77,0.00,,OVC075,0.00,VWS V14.01,2013-03-06 15:53:00,
2013-03-06 10:59:00,33.9,27.8,30.21,East,87,0.0,1.0,78,0.00,,OVC075,0.00,VWS V14.01,2013-03-06 15:59:00,
2013-03-06 11:04:00,34.4,27.6,30.21,East,87,1.0,1.0,76,0.00,,OVC075,0.00,VWS V14.01,2013-03-06 16:04:00,
2013-03-06 11:09:00,34.3,27.5,30.21,SE,142,1.0,2.0,76,0.00,,OVC080,0.00,VWS V14.01,2013-03-06 16:09:00,
2013-03-06 11:14:00,34.8,28.0,30.21,NE,51,4.0,4.0,76,0.00,,OVC080,0.00,VWS V14.01,2013-03-06 16:14:00,
2013-03-06 11:19:00,34.7,27.9,30.21,East,96,2.0,2.0,76,0.00,,OVC080,0.00,VWS V14.01,2013-03-06 16:19:00,
2013-03-06 11:24:00,34.7,27.9,30.21,East,94,5.0,6.0,76,0.00,,OVC080,0.00,VWS V14.01,2013-03-06 16:24:00,
2013-03-06 11:29:00,34.7,28.2,30.21,ENE,72,2.0,5.0,77,0.00,,OVC080,0.00,VWS V14.01,2013-03-06 16:29:00,
2013-03-06 11:34:00,34.7,28.2,30.21,East,83,1.0,2.0,77,0.00,,OVC080,0.00,VWS V14.01,2013-03-06 16:34:00,
2013-03-06 11:39:00,35.0,28.5,30.21,East,79,2.0,2.0,77,0.00,,OVC080,0.00,VWS V14.01,2013-03-06 16:39:00,
2013-03-06 11:44:00,35.4,28.6,30.21,East,81,6.0,8.0,76,0.00,,OVC080,0.00,VWS V14.01,2013-03-06 16:44:00,
2013-03-06 11:49:00,35.0,28.2,30.21,East,99,8.0,8.0,76,0.00,,OVC080,0.00,VWS V14.01,2013-03-06 16:49:00,
2013-03-06 11:54:00,35.0,28.2,30.21,East,96,7.0,9.0,76,0.00,,OVC080,0.00,VWS V14.01,2013-03-06 16:54:00,
2013-03-06 11:59:00,35.1,28.3,30.21,NE,40,2.0,3.0,76,0.00,,OVC080,0.00,VWS V14.01,2013-03-06 16:59:00,
2013-03-06 12:04:00,35.2,28.4,30.21,East,90,5.0,6.0,76,0.00,,OVC080,0.00,VWS V14.01,2013-03-06 17:04:00,
2013-03-06 12:09:00,35.4,28.6,30.21,NE,38,4.0,5.0,76,0.00,,OVC080,0.00,VWS V14.01,2013-03-06 17:09:00,
2013-03-06 12:14:00,35.6,28.5,30.21,East,79,4.0,5.0,75,0.00,,OVC080,0.00,VWS V14.01,2013-03-06 17:14:00,
2013-03-06 12:19:00,35.7,28.6,30.21,SE,128,2.0,4.0,75,0.00,,OVC080,0.00,VWS V14.01,2013-03-06 17:19:00,
2013-03-06 12:24:00,35.6,28.5,30.21,ESE,117,3.0,3.0,75,0.00,,OVC080,0.00,VWS V14.01,2013-03-06 17:24:00,
2013-03-06 12:29:00,35.8,28.7,30.21,ESE,122,1.0,3.0,75,0.00,,OVC080,0.00,VWS V14.01,2013-03-06 17:29:00,
2013-03-06 12:34:00,35.8,28.7,30.21,SE,136,3.0,7.0,75,0.00,,OVC080,0.00,VWS V14.01,2013-03-06 17:34:00,
2013-03-06 12:39:00,35.8,28.7,30.21,ESE,109,7.0,8.0,75,0.00,,OVC080,0.00,VWS V14.01,2013-03-06 17:39:00,
2013-03-06 12:44:00,35.4,28.3,30.21,ESE,103,3.0,4.0,75,0.00,,OVC080,0.00,VWS V14.01,2013-03-06 17:44:00,
2013-03-06 12:49:00,35.7,28.9,30.21,ESE,121,5.0,7.0,76,0.00,,OVC080,0.00,VWS V14.01,2013-03-06 17:49:00,
2013-03-06 12:54:00,35.9,28.8,30.20,SE,132,6.0,10.0,75,0.00,,OVC080,0.00,VWS V14.01,2013-03-06 17:54:00,
2013-03-06 12:59:00,35.8,28.7,30.20,ESE,103,3.0,5.0,75,0.00,,OVC080,0.00,VWS V14.01,2013-03-06 17:59:00,
2013-03-06 13:04:00,35.8,29.0,30.20,East,90,5.0,5.0,76,0.00,,OVC080,0.00,VWS V14.01,2013-03-06 18:04:00,
2013-03-06 13:09:00,35.8,28.7,30.20,NE,43,3.0,3.0,75,0.00,,OVC021,0.00,VWS V14.01,2013-03-06 18:09:00,
2013-03-06 13:14:00,36.3,28.8,30.20,East,85,3.0,4.0,74,0.00,,OVC021,0.00,VWS V14.01,2013-03-06 18:14:00,
2013-03-06 13:19:00,36.3,28.8,30.20,East,94,5.0,8.0,74,0.00,,OVC021,0.00,VWS V14.01,2013-03-06 18:19:00,
2013-03-06 13:24:00,36.2,28.7,30.20,ESE,103,2.0,5.0,74,0.00,,OVC021,0.00,VWS V14.01,2013-03-06 18:24:00,
2013-03-06 13:29:00,36.2,28.7,30.20,ENE,74,2.0,3.0,74,0.00,,OVC021,0.00,VWS V14.01,2013-03-06 18:29:00,
2013-03-06 13:34:00,36.5,29.3,30.20,NE,55,6.0,7.0,75,0.00,,OVC021,0.00,VWS V14.01,2013-03-06 18:34:00,
2013-03-06 13:39:00,36.6,29.1,30.20,ENE,62,1.0,2.0,74,0.00,,OVC021,0.00,VWS V14.01,2013-03-06 18:39:00,
2013-03-06 13:44:00,36.9,29.1,30.19,NNE,33,4.0,5.0,73,0.00,,OVC021,0.00,VWS V14.01,2013-03-06 18:44:00,
2013-03-06 13:49:00,36.6,28.8,30.19,ENE,71,0.0,0.0,73,0.00,,OVC021,0.00,VWS V14.01,2013-03-06 18:49:00,
2013-03-06 13:54:00,37.3,29.1,30.20,NNW,345,4.0,4.0,72,0.00,,OVC021,0.00,VWS V14.01,2013-03-06 18:54:00,
2013-03-06 13:59:00,36.7,29.2,30.19,NW,311,7.0,10.0,74,0.00,,OVC021,0.00,VWS V14.01,2013-03-06 18:59:00,
2013-03-06 14:04:00,36.2,28.7,30.19,NNW,327,8.0,8.0,74,0.00,,OVC021,0.00,VWS V14.01,2013-03-06 19:04:00,
2013-03-06 14:09:00,35.9,28.8,30.20,North,2,7.0,7.0,75,0.00,,OVC023,0.00,VWS V14.01,2013-03-06 19:09:00,
2013-03-06 14:14:00,35.7,28.9,30.20,NNW,338,7.0,11.0,76,0.00,,OVC023,0.00,VWS V14.01,2013-03-06 19:14:00,
2013-03-06 14:19:00,35.5,29.0,30.20,NNE,15,9.0,10.0,77,0.00,,OVC023,0.00,VWS V14.01,2013-03-06 19:19:00,
2013-03-06 14:24:00,35.1,28.9,30.20,NW,312,5.0,8.0,78,0.00,,OVC023,0.00,VWS V14.01,2013-03-06 19:24:00,
2013-03-06 14:29:00,34.9,28.8,30.20,North,357,9.0,9.0,78,0.00,,OVC023,0.00,VWS V14.01,2013-03-06 19:29:00,
2013-03-06 14:34:00,34.7,28.5,30.20,NNW,331,5.0,7.0,78,0.00,,OVC023,0.00,VWS V14.01,2013-03-06 19:34:00,
2013-03-06 14:39:00,34.8,28.6,30.20,North,2,3.0,5.0,78,0.00,,OVC023,0.00,VWS V14.01,2013-03-06 19:39:00,
2013-03-06 14:44:00,35.0,28.9,30.20,NW,323,3.0,5.0,78,0.00,,OVC023,0.00,VWS V14.01,2013-03-06 19:44:00,
2013-03-06 14:49:00,35.0,28.9,30.20,NNW,329,4.0,4.0,78,0.00,,OVC023,0.00,VWS V14.01,2013-03-06 19:49:00,
2013-03-06 14:54:00,34.9,28.8,30.20,North,11,4.0,5.0,78,0.00,,OVC023,0.00,VWS V14.01,2013-03-06 19:54:00,
2013-03-06 14:59:00,35.1,28.9,30.20,North,7,2.0,3.0,78,0.00,,OVC023,0.00,VWS V14.01,2013-03-06 19:59:00,
2013-03-06 15:04:00,35.2,29.0,30.20,North,357,4.0,7.0,78,0.00,,OVC023,0.00,VWS V14.01,2013-03-06 20:04:00,
2013-03-06 15:09:00,34.9,28.8,30.20,North,2,5.0,5.0,78,0.00,,OVC025,0.00,VWS V14.01,2013-03-06 20:09:00,
2013-03-06 15:15:00,34.8,29.0,30.20,NNW,342,3.0,5.0,79,0.00,,OVC025,0.00,VWS V14.01,2013-03-06 20:15:00,
2013-03-06 15:20:00,34.5,28.7,30.21,NW,323,5.0,7.0,79,0.00,,OVC025,0.00,VWS V14.01,2013-03-06 20:20:00,
2013-03-06 15:25:00,34.0,28.2,30.21,NNW,338,4.0,5.0,79,0.00,,OVC025,0.00,VWS V14.01,2013-03-06 20:25:00,
2013-03-06 15:30:00,33.9,28.1,30.21,NNW,346,3.0,3.0,79,0.00,,OVC025,0.00,VWS V14.01,2013-03-06 20:30:00,
2013-03-06 15:35:00,33.9,28.1,30.21,NNW,344,2.0,4.0,79,0.00,,OVC025,0.00,VWS V14.01,2013-03-06 20:35:00,
2013-03-06 15:40:00,33.9,28.1,30.21,North,2,3.0,3.0,79,0.00,,OVC025,0.00,VWS V14.01,2013-03-06 20:40:00,
2013-03-06 15:45:00,34.2,28.7,30.21,NNE,14,1.0,1.0,80,0.00,,OVC025,0.00,VWS V14.01,2013-03-06 20:45:00,
2013-03-06 15:50:00,34.4,28.9,30.21,North,353,2.0,2.0,80,0.00,,OVC025,0.00,VWS V14.01,2013-03-06 20:50:00,
2013-03-06 15:55:00,34.2,28.1,30.21,NW,319,6.0,8.0,78,0.00,,OVC025,0.00,VWS V14.01,2013-03-06 20:55:00,
2013-03-06 16:00:00,33.7,27.9,30.21,NNW,330,5.0,7.0,79,0.00,,OVC025,0.00,VWS V14.01,2013-03-06 21:00:00,
2013-03-06 16:05:00,33.5,28.0,30.22,North,7,4.0,5.0,80,0.00,,OVC025,0.00,VWS V14.01,2013-03-06 21:05:00,
2013-03-06 16:10:00,33.2,27.7,30.22,NNW,348,5.0,6.0,80,0.00,,OVC025,0.00,VWS V14.01,2013-03-06 21:10:00,
2013-03-06 16:15:00,33.0,27.5,30.21,NNW,348,3.0,6.0,80,0.00,,OVC025,0.00,VWS V14.01,2013-03-06 21:15:00,
2013-03-06 16:20:00,33.0,27.8,30.21,North,353,4.0,6.0,81,0.00,,OVC025,0.00,VWS V14.01,2013-03-06 21:20:00,
2013-03-06 16:25:00,33.0,27.8,30.21,North,2,3.0,4.0,81,0.00,,OVC025,0.00,VWS V14.01,2013-03-06 21:25:00,
2013-03-06 16:30:00,33.0,28.1,30.21,NNE,13,4.0,5.0,82,0.00,,OVC025,0.00,VWS V14.01,2013-03-06 21:30:00,
2013-03-06 16:35:00,33.0,28.4,30.21,NNW,330,4.0,5.0,83,0.00,,OVC025,0.00,VWS V14.01,2013-03-06 21:35:00,
2013-03-06 16:40:00,32.9,28.3,30.21,NW,319,3.0,3.0,83,0.00,,OVC025,0.00,VWS V14.01,2013-03-06 21:40:00,
2013-03-06 16:45:00,32.8,28.5,30.21,NNE,15,3.0,5.0,84,0.00,,OVC025,0.00,VWS V14.01,2013-03-06 21:45:00,
2013-03-06 16:50:00,32.8,28.8,30.21,North,7,2.0,3.0,85,0.00,,OVC025,0.00,VWS V14.01,2013-03-06 21:50:00,
2013-03-06 16:55:00,32.8,28.8,30.21,NW,324,2.0,3.0,85,0.00,,OVC025,0.00,VWS V14.01,2013-03-06 21:55:00,
2013-03-06 17:00:00,32.8,29.1,30.21,NNE,21,4.0,5.0,86,0.00,,OVC025,0.00,VWS V14.01,2013-03-06 22:00:00,
2013-03-06 17:05:00,32.6,29.2,30.21,North,349,3.0,4.0,87,0.00,,OVC025,0.00,VWS V14.01,2013-03-06 22:05:00,
2013-03-06 17:10:00,32.5,29.4,30.21,NW,316,2.0,2.0,88,0.00,,OVC025,0.00,VWS V14.01,2013-03-06 22:10:00,
2013-03-06 17:15:00,32.5,29.4,30.21,NNW,334,2.0,3.0,88,0.00,,OVC025,0.00,VWS V14.01,2013-03-06 22:15:00,
2013-03-06 17:20:00,32.4,29.2,30.21,NNW,341,4.0,5.0,88,0.00,,OVC025,0.00,VWS V14.01,2013-03-06 22:20:00,
2013-03-06 17:25:00,32.3,29.4,30.21,NNW,332,4.0,6.0,89,0.00,,OVC025,0.00,VWS V14.01,2013-03-06 22:25:00,
2013-03-06 17:30:00,32.2,29.3,30.21,NW,313,3.0,3.0,89,0.00,,OVC025,0.00,VWS V14.01,2013-03-06 22:30:00,
2013-03-06 17:35:00,32.1,29.5,30.21,NW,323,2.0,3.0,90,0.00,,OVC025,0.00,VWS V14.01,2013-03-06 22:35:00,
2013-03-06 17:40:00,32.1,29.5,30.21,North,7,3.0,3.0,90,0.00,,OVC025,0.00,VWS V14.01,2013-03-06 22:40:00,
2013-03-06 17:45:00,32.1,29.8,30.21,NNE,25,3.0,6.0,91,0.00,,OVC025,0.00,VWS V14.01,2013-03-06 22:45:00,
2013-03-06 17:50:00,32.0,29.7,30.21,North,2,4.0,5.0,91,0.00,,OVC025,0.00,VWS V14.01,2013-03-06 22:50:00,
2013-03-06 17:55:00,32.0,29.7,30.21,NNW,328,2.0,3.0,91,0.00,,OVC070,0.00,VWS V14.01,2013-03-06 22:55:00,
2013-03-06 18:00:00,31.9,29.6,30.21,NNW,327,1.0,3.0,91,0.00,,OVC070,0.00,VWS V14.01,2013-03-06 23:00:00,
2013-03-06 18:05:00,31.9,29.6,30.21,NNW,331,3.0,3.0,91,0.00,,OVC070,0.00,VWS V14.01,2013-03-06 23:05:00,
2013-03-06 18:10:00,31.8,29.8,30.21,NNW,327,1.0,4.0,92,0.00,,OVC075,0.00,VWS V14.01,2013-03-06 23:10:00,
2013-03-06 18:15:00,31.8,29.5,30.21,NNW,329,4.0,4.0,91,0.00,,OVC075,0.00,VWS V14.01,2013-03-06 23:15:00,
2013-03-06 18:20:00,31.8,29.8,30.22,NNW,335,3.0,3.0,92,0.00,,OVC075,0.00,VWS V14.01,2013-03-06 23:20:00,
2013-03-06 18:25:00,31.7,29.6,30.22,NNW,346,3.0,6.0,92,0.00,,OVC075,0.00,VWS V14.01,2013-03-06 23:25:00,
2013-03-06 18:30:00,31.7,29.6,30.22,North,357,6.0,7.0,92,0.00,,OVC075,0.00,VWS V14.01,2013-03-06 23:30:00,
2013-03-06 18:36:00,31.7,29.6,30.22,NNE,13,3.0,5.0,92,0.00,,OVC075,0.00,VWS V14.01,2013-03-06 23:36:00,
2013-03-06 18:41:00,31.6,29.8,30.22,North,2,4.0,4.0,93,0.00,,OVC090,0.00,VWS V14.01,2013-03-06 23:41:00,
2013-03-06 18:46:00,31.6,29.8,30.22,North,357,3.0,4.0,93,0.00,,OVC090,0.00,VWS V14.01,2013-03-06 23:46:00,
2013-03-06 18:51:00,31.6,29.8,30.22,NNW,346,3.0,4.0,93,0.00,,OVC090,0.00,VWS V14.01,2013-03-06 23:51:00,
2013-03-06 18:56:00,31.5,29.7,30.22,North,352,7.0,7.0,93,0.00,,OVC090,0.00,VWS V14.01,2013-03-06 23:56:00,
2013-03-06 19:01:00,31.5,29.7,30.22,North,7,4.0,5.0,93,0.00,,OVC090,0.00,VWS V14.01,2013-03-07 00:01:00,
2013-03-06 19:06:00,31.5,30.0,30.22,North,357,3.0,4.0,94,0.00,,OVC090,0.00,VWS V14.01,2013-03-07 00:06:00,
2013-03-06 19:11:00,31.4,29.9,30.22,North,2,3.0,6.0,94,0.00,,OVC010,0.00,VWS V14.01,2013-03-07 00:11:00,
2013-03-06 19:16:00,31.4,29.9,30.22,North,352,4.0,5.0,94,0.00,,OVC010,0.00,VWS V14.01,2013-03-07 00:16:00,
2013-03-06 19:21:00,31.3,29.8,30.22,NNE,21,3.0,4.0,94,0.00,,OVC010,0.00,VWS V14.01,2013-03-07 00:21:00,
2013-03-06 19:26:00,31.3,29.8,30.22,North,7,4.0,5.0,94,0.00,,,0.00,VWS V14.01,2013-03-07 00:26:00,
2013-03-06 19:31:00,31.2,29.7,30.23,NNW,332,3.0,4.0,94,0.00,,,0.00,VWS V14.01,2013-03-07 00:31:00,
2013-03-06 19:36:00,31.2,29.7,30.23,North,357,2.0,5.0,94,0.00,,,0.00,VWS V14.01,2013-03-07 00:36:00,
2013-03-06 19:41:00,31.1,29.6,30.23,NNW,327,2.0,4.0,94,0.00,,,0.00,VWS V14.01,2013-03-07 00:41:00,
2013-03-06 19:46:00,31.0,29.5,30.23,North,357,4.0,4.0,94,0.00,,,0.00,VWS V14.01,2013-03-07 00:46:00,
2013-03-06 19:51:00,31.0,29.5,30.23,North,357,3.0,5.0,94,0.00,,,0.00,VWS V14.01,2013-03-07 00:51:00,
2013-03-06 19:56:00,30.9,29.4,30.23,NNW,345,4.0,5.0,94,0.00,,,0.00,VWS V14.01,2013-03-07 00:56:00,
2013-03-06 20:01:00,30.8,29.3,30.23,North,357,5.0,7.0,94,0.00,,,0.00,VWS V14.01,2013-03-07 01:01:00,
2013-03-06 20:06:00,30.8,29.3,30.23,North,7,4.0,4.0,94,0.00,,,0.00,VWS V14.01,2013-03-07 01:06:00,
2013-03-06 20:11:00,30.7,29.2,30.23,NNW,338,3.0,4.0,94,0.00,,,0.00,VWS V14.01,2013-03-07 01:11:00,
2013-03-06 20:16:00,30.7,29.2,30.23,NNW,333,2.0,3.0,94,0.00,,,0.00,VWS V14.01,2013-03-07 01:16:00,
2013-03-06 20:21:00,30.7,29.2,30.23,NNE,15,3.0,8.0,94,0.00,,,0.00,VWS V14.01,2013-03-07 01:21:00,
2013-03-06 20:26:00,30.6,29.1,30.23,NW,313,3.0,6.0,94,0.00,,,0.00,VWS V14.01,2013-03-07 01:26:00,
2013-03-06 20:31:00,30.6,29.1,30.23,NNW,344,2.0,4.0,94,0.00,,,0.00,VWS V14.01,2013-03-07 01:31:00,
2013-03-06 20:36:00,30.5,29.0,30.23,NNE,14,8.0,8.0,94,0.00,,,0.00,VWS V14.01,2013-03-07 01:36:00,
2013-03-06 20:41:00,30.5,29.0,30.24,North,2,4.0,5.0,94,0.00,,,0.00,VWS V14.01,2013-03-07 01:41:00,
2013-03-06 20:46:00,30.3,28.8,30.24,NNE,12,4.0,5.0,94,0.00,,,0.00,VWS V14.01,2013-03-07 01:46:00,
2013-03-06 20:51:00,30.2,28.7,30.24,North,357,2.0,4.0,94,0.00,,,0.00,VWS V14.01,2013-03-07 01:51:00,
2013-03-06 20:56:00,30.1,28.6,30.24,North,357,3.0,4.0,94,0.00,,,0.00,VWS V14.01,2013-03-07 01:56:00,
2013-03-06 21:01:00,30.1,28.6,30.24,NNW,347,5.0,6.0,94,0.00,,,0.00,VWS V14.01,2013-03-07 02:01:00,
2013-03-06 21:06:00,30.1,28.6,30.24,NNW,333,4.0,6.0,94,0.00,,,0.00,VWS V14.01,2013-03-07 02:06:00,
2013-03-06 21:11:00,30.1,28.6,30.24,North,350,3.0,4.0,94,0.00,,,0.00,VWS V14.01,2013-03-07 02:11:00,
2013-03-06 21:16:00,30.0,28.5,30.24,NNW,327,2.0,4.0,94,0.00,,,0.00,VWS V14.01,2013-03-07 02:16:00,
2013-03-06 21:21:00,29.9,28.4,30.24,NNW,344,2.0,4.0,94,0.00,,,0.00,VWS V14.01,2013-03-07 02:21:00,
2013-03-06 21:26:00,29.8,28.3,30.24,NNW,337,2.0,4.0,94,0.00,,,0.00,VWS V14.01,2013-03-07 02:26:00,
2013-03-06 21:31:00,29.5,27.7,30.25,NNW,329,4.0,10.0,93,0.00,,,0.00,VWS V14.01,2013-03-07 02:31:00,
2013-03-06 21:36:00,28.8,27.0,30.25,North,7,12.0,12.0,93,0.00,,,0.00,VWS V14.01,2013-03-07 02:36:00,
2013-03-06 21:41:00,28.3,26.3,30.25,NNE,12,10.0,11.0,92,0.00,,,0.00,VWS V14.01,2013-03-07 02:41:00,
2013-03-06 21:46:00,28.1,26.1,30.25,NW,325,5.0,8.0,92,0.00,,,0.00,VWS V14.01,2013-03-07 02:46:00,
2013-03-06 21:51:00,28.0,26.0,30.25,North,7,3.0,11.0,92,0.00,,,0.00,VWS V14.01,2013-03-07 02:51:00,
2013-03-06 21:56:00,28.0,26.2,30.25,NNW,345,5.0,6.0,93,0.00,,,0.00,VWS V14.01,2013-03-07 02:56:00,
2013-03-06 22:01:00,27.9,26.1,30.26,NW,322,8.0,9.0,93,0.00,,,0.00,VWS V14.01,2013-03-07 03:01:00,
2013-03-06 22:06:00,27.7,25.9,30.26,NW,313,5.0,10.0,93,0.00,,,0.00,VWS V14.01,2013-03-07 03:06:00,
2013-03-06 22:11:00,27.5,25.8,30.26,NNW,348,8.0,11.0,93,0.00,,,0.00,VWS V14.01,2013-03-07 03:11:00,
2013-03-06 22:16:00,27.3,25.3,30.26,NW,323,8.0,10.0,92,0.00,,,0.00,VWS V14.01,2013-03-07 03:16:00,
2013-03-06 22:21:00,27.1,25.1,30.26,NNW,343,6.0,6.0,92,0.00,,,0.00,VWS V14.01,2013-03-07 03:21:00,
2013-03-06 22:26:00,27.0,25.0,30.26,North,2,10.0,10.0,92,0.00,,,0.00,VWS V14.01,2013-03-07 03:26:00,
2013-03-06 22:31:00,26.9,24.9,30.26,NW,323,6.0,6.0,92,0.00,,,0.00,VWS V14.01,2013-03-07 03:31:00,
2013-03-06 22:36:00,26.8,24.5,30.26,NW,323,5.0,7.0,91,0.00,,,0.00,VWS V14.01,2013-03-07 03:36:00,
2013-03-06 22:42:00,26.8,24.5,30.26,NNW,332,7.0,10.0,91,0.00,,,0.00,VWS V14.01,2013-03-07 03:42:00,
2013-03-06 22:47:00,26.7,24.4,30.26,North,2,2.0,7.0,91,0.00,,,0.00,VWS V14.01,2013-03-07 03:47:00,
2013-03-06 22:52:00,26.8,24.5,30.26,NW,319,6.0,6.0,91,0.00,,,0.00,VWS V14.01,2013-03-07 03:52:00,
2013-03-06 22:57:00,26.7,24.2,30.26,North,2,6.0,8.0,90,0.00,,,0.00,VWS V14.01,2013-03-07 03:57:00,
2013-03-06 23:02:00,26.7,24.2,30.26,North,2,6.0,7.0,90,0.00,,,0.00,VWS V14.01,2013-03-07 04:02:00,
2013-03-06 23:07:00,26.7,24.2,30.26,NNW,348,4.0,6.0,90,0.00,,,0.00,VWS V14.01,2013-03-07 04:07:00,
2013-03-06 23:12:00,26.7,23.9,30.26,NNW,339,5.0,7.0,89,0.00,,OVC044,0.00,VWS V14.01,2013-03-07 04:12:00,
2013-03-06 23:17:00,26.6,23.8,30.27,NW,321,7.0,9.0,89,0.00,,OVC044,0.00,VWS V14.01,2013-03-07 04:17:00,
2013-03-06 23:22:00,26.5,23.4,30.27,North,353,6.0,10.0,88,0.00,,OVC044,0.00,VWS V14.01,2013-03-07 04:22:00,
2013-03-06 23:27:00,26.3,23.2,30.27,NNW,341,4.0,6.0,88,0.00,,OVC044,0.00,VWS V14.01,2013-03-07 04:27:00,
2013-03-06 23:32:00,26.2,23.1,30.27,NW,316,6.0,10.0,88,0.00,,OVC044,0.00,VWS V14.01,2013-03-07 04:32:00,
2013-03-06 23:37:00,26.1,23.0,30.27,North,2,6.0,8.0,88,0.00,,OVC044,0.00,VWS V14.01,2013-03-07 04:37:00,
2013-03-06 23:42:00,26.0,22.9,30.27,NW,314,7.0,10.0,88,0.00,,OVC044,0.00,VWS V14.01,2013-03-07 04:42:00,
2013-03-06 23:47:00,26.0,23.2,30.27,NNW,338,7.0,9.0,89,0.00,,OVC044,0.00,VWS V14.01,2013-03-07 04:47:00,
2013-03-06 23:52:00,25.8,23.0,30.27,NNW,344,6.0,10.0,89,0.00,,OVC044,0.00,VWS V14.01,2013-03-07 04:52:00,
2013-03-06 23:57:00,25.8,23.0,30.27,NNW,348,3.0,9.0,89,0.00,,OVC044,0.00,VWS V14.01,2013-03-07 04:57:00,